sensor_id;sensor_type;location;lat;lon;timestamp;temperature;humidity
35645;DHT22;21764;52.042;6.830;2023-04-06T00:03:44;1.50;99.90
35645;DHT22;21764;52.042;6.830;2023-04-06T00:08:45;1.50;99.90
35645;DHT22;21764;52.042;6.830;2023-04-06T00:13:46;1.40;99.90
35645;DHT22;21764;52.042;6.830;2023-04-06T00:18:47;1.40;99.90
35645;DHT22;21764;52.042;6.830;2023-04-06T00:23:49;1.50;99.90
35645;DHT22;21764;52.042;6.830;2023-04-06T00:28:49;1.40;99.90
35645;DHT22;21764;52.042;6.830;2023-04-06T00:33:52;1.30;99.90
35645;DHT22;21764;52.042;6.830;2023-04-06T00:38:53;1.20;99.90
35645;DHT22;21764;52.042;6.830;2023-04-06T00:43:54;1.10;99.90
35645;DHT22;21764;52.042;6.830;2023-04-06T00:48:56;1.10;99.90
35645;DHT22;21764;52.042;6.830;2023-04-06T00:53:56;1.00;99.90
35645;DHT22;21764;52.042;6.830;2023-04-06T00:58:57;1.00;99.90
35645;DHT22;21764;52.042;6.830;2023-04-06T01:03:58;0.90;99.90
35645;DHT22;21764;52.042;6.830;2023-04-06T01:08:59;0.70;99.90
35645;DHT22;21764;52.042;6.830;2023-04-06T01:14:00;0.80;99.90
35645;DHT22;21764;52.042;6.830;2023-04-06T01:19:00;0.80;99.90
35645;DHT22;21764;52.042;6.830;2023-04-06T01:24:02;0.80;99.90
35645;DHT22;21764;52.042;6.830;2023-04-06T01:29:02;0.70;99.90
35645;DHT22;21764;52.042;6.830;2023-04-06T01:34:03;0.60;99.90
35645;DHT22;21764;52.042;6.830;2023-04-06T01:39:04;0.50;99.90
35645;DHT22;21764;52.042;6.830;2023-04-06T01:44:05;0.50;99.90
35645;DHT22;21764;52.042;6.830;2023-04-06T01:49:06;0.40;99.90
35645;DHT22;21764;52.042;6.830;2023-04-06T01:54:07;0.50;99.90
35645;DHT22;21764;52.042;6.830;2023-04-06T01:59:08;0.40;99.90
35645;DHT22;21764;52.042;6.830;2023-04-06T02:04:10;0.40;99.90
35645;DHT22;21764;52.042;6.830;2023-04-06T02:09:10;0.30;99.90
35645;DHT22;21764;52.042;6.830;2023-04-06T02:14:11;0.30;99.90
35645;DHT22;21764;52.042;6.830;2023-04-06T02:19:12;0.20;99.90
35645;DHT22;21764;52.042;6.830;2023-04-06T02:24:13;0.30;99.90
35645;DHT22;21764;52.042;6.830;2023-04-06T02:29:14;0.30;99.90
35645;DHT22;21764;52.042;6.830;2023-04-06T02:34:15;0.20;99.90
35645;DHT22;21764;52.042;6.830;2023-04-06T02:39:17;0.10;99.90
35645;DHT22;21764;52.042;6.830;2023-04-06T02:44:18;0.20;99.90
35645;DHT22;21764;52.042;6.830;2023-04-06T02:49:19;0.10;99.90
35645;DHT22;21764;52.042;6.830;2023-04-06T02:54:21;0.00;99.90
35645;DHT22;21764;52.042;6.830;2023-04-06T02:59:21;0.00;99.90
35645;DHT22;21764;52.042;6.830;2023-04-06T03:04:22;0.00;99.90
35645;DHT22;21764;52.042;6.830;2023-04-06T03:09:25;0.00;99.90
35645;DHT22;21764;52.042;6.830;2023-04-06T03:14:28;0.00;99.90
35645;DHT22;21764;52.042;6.830;2023-04-06T03:19:28;-0.10;99.90
35645;DHT22;21764;52.042;6.830;2023-04-06T03:24:30;-0.20;99.90
35645;DHT22;21764;52.042;6.830;2023-04-06T03:29:31;-0.20;99.90
35645;DHT22;21764;52.042;6.830;2023-04-06T03:34:32;-0.10;99.90
35645;DHT22;21764;52.042;6.830;2023-04-06T03:39:32;-0.10;99.90
35645;DHT22;21764;52.042;6.830;2023-04-06T03:44:33;0.00;99.90
35645;DHT22;21764;52.042;6.830;2023-04-06T03:49:34;-0.20;99.90
35645;DHT22;21764;52.042;6.830;2023-04-06T03:54:35;-0.20;99.90
35645;DHT22;21764;52.042;6.830;2023-04-06T03:59:35;-0.20;99.90
35645;DHT22;21764;52.042;6.830;2023-04-06T04:04:36;-0.30;99.90
35645;DHT22;21764;52.042;6.830;2023-04-06T04:09:37;-0.30;99.90
35645;DHT22;21764;52.042;6.830;2023-04-06T04:14:38;-0.30;99.90
35645;DHT22;21764;52.042;6.830;2023-04-06T04:19:38;-0.30;99.90
35645;DHT22;21764;52.042;6.830;2023-04-06T04:24:39;-0.30;99.90
35645;DHT22;21764;52.042;6.830;2023-04-06T04:29:40;-0.30;99.90
35645;DHT22;21764;52.042;6.830;2023-04-06T04:34:40;-0.40;99.90
35645;DHT22;21764;52.042;6.830;2023-04-06T04:39:41;-0.40;99.90
35645;DHT22;21764;52.042;6.830;2023-04-06T04:44:42;-0.30;99.90
35645;DHT22;21764;52.042;6.830;2023-04-06T04:49:42;-0.40;99.90
35645;DHT22;21764;52.042;6.830;2023-04-06T04:54:43;-0.30;99.90
35645;DHT22;21764;52.042;6.830;2023-04-06T04:59:44;-0.20;99.90
35645;DHT22;21764;52.042;6.830;2023-04-06T05:04:45;-0.10;99.90
35645;DHT22;21764;52.042;6.830;2023-04-06T05:09:46;0.00;99.90
35645;DHT22;21764;52.042;6.830;2023-04-06T05:14:47;0.20;99.90
35645;DHT22;21764;52.042;6.830;2023-04-06T05:19:48;0.50;99.90
35645;DHT22;21764;52.042;6.830;2023-04-06T05:24:48;1.50;99.90
35645;DHT22;21764;52.042;6.830;2023-04-06T05:29:49;2.60;99.90
35645;DHT22;21764;52.042;6.830;2023-04-06T05:34:53;3.70;99.90
35645;DHT22;21764;52.042;6.830;2023-04-06T05:39:54;4.60;97.50
35645;DHT22;21764;52.042;6.830;2023-04-06T05:44:55;5.60;94.70
35645;DHT22;21764;52.042;6.830;2023-04-06T05:49:56;6.50;92.00
35645;DHT22;21764;52.042;6.830;2023-04-06T05:54:57;7.60;89.20
35645;DHT22;21764;52.042;6.830;2023-04-06T05:59:58;9.00;84.50
35645;DHT22;21764;52.042;6.830;2023-04-06T06:04:59;9.90;78.10
35645;DHT22;21764;52.042;6.830;2023-04-06T06:10:00;11.10;74.00
35645;DHT22;21764;52.042;6.830;2023-04-06T06:15:00;12.20;68.90
35645;DHT22;21764;52.042;6.830;2023-04-06T06:20:01;12.80;65.60
35645;DHT22;21764;52.042;6.830;2023-04-06T06:25:03;13.20;63.40
35645;DHT22;21764;52.042;6.830;2023-04-06T06:30:04;13.60;62.50
35645;DHT22;21764;52.042;6.830;2023-04-06T06:35:05;14.80;59.90
35645;DHT22;21764;52.042;6.830;2023-04-06T06:40:08;15.70;58.00
35645;DHT22;21764;52.042;6.830;2023-04-06T06:45:09;15.80;56.10
35645;DHT22;21764;52.042;6.830;2023-04-06T06:50:10;16.90;55.00
35645;DHT22;21764;52.042;6.830;2023-04-06T06:55:11;17.10;53.30
35645;DHT22;21764;52.042;6.830;2023-04-06T07:00:13;18.80;52.10
35645;DHT22;21764;52.042;6.830;2023-04-06T07:05:15;19.50;50.80
35645;DHT22;21764;52.042;6.830;2023-04-06T07:10:16;18.90;49.80
35645;DHT22;21764;52.042;6.830;2023-04-06T07:15:17;18.90;50.60
35645;DHT22;21764;52.042;6.830;2023-04-06T07:20:18;18.40;50.50
35645;DHT22;21764;52.042;6.830;2023-04-06T07:25:19;18.40;50.80
35645;DHT22;21764;52.042;6.830;2023-04-06T07:30:19;21.30;47.30
35645;DHT22;21764;52.042;6.830;2023-04-06T07:35:26;21.40;47.60
35645;DHT22;21764;52.042;6.830;2023-04-06T07:40:26;19.60;48.40
35645;DHT22;21764;52.042;6.830;2023-04-06T07:45:27;17.70;51.60
35645;DHT22;21764;52.042;6.830;2023-04-06T07:50:28;21.50;47.80
35645;DHT22;21764;52.042;6.830;2023-04-06T07:55:29;23.30;47.30
35645;DHT22;21764;52.042;6.830;2023-04-06T08:00:30;22.10;45.90
35645;DHT22;21764;52.042;6.830;2023-04-06T08:05:31;23.80;44.50
35645;DHT22;21764;52.042;6.830;2023-04-06T08:10:31;22.90;45.00
35645;DHT22;21764;52.042;6.830;2023-04-06T08:15:34;23.20;45.40
35645;DHT22;21764;52.042;6.830;2023-04-06T08:20:35;24.60;42.60
35645;DHT22;21764;52.042;6.830;2023-04-06T08:25:36;22.70;43.40
35645;DHT22;21764;52.042;6.830;2023-04-06T08:30:40;24.70;43.10
35645;DHT22;21764;52.042;6.830;2023-04-06T08:35:41;20.50;46.10
35645;DHT22;21764;52.042;6.830;2023-04-06T08:40:41;16.70;52.10
35645;DHT22;21764;52.042;6.830;2023-04-06T08:45:44;15.40;55.30
35645;DHT22;21764;52.042;6.830;2023-04-06T08:50:46;14.90;56.70
35645;DHT22;21764;52.042;6.830;2023-04-06T08:55:47;15.30;55.60
35645;DHT22;21764;52.042;6.830;2023-04-06T09:00:49;16.40;55.40
35645;DHT22;21764;52.042;6.830;2023-04-06T09:05:50;17.80;51.70
35645;DHT22;21764;52.042;6.830;2023-04-06T09:10:51;17.00;52.80
35645;DHT22;21764;52.042;6.830;2023-04-06T09:16:01;16.50;53.30
35645;DHT22;21764;52.042;6.830;2023-04-06T09:21:03;15.20;53.70
35645;DHT22;21764;52.042;6.830;2023-04-06T09:31:14;16.10;53.00
35645;DHT22;21764;52.042;6.830;2023-04-06T09:36:15;16.30;52.70
35645;DHT22;21764;52.042;6.830;2023-04-06T09:41:23;15.90;53.30
35645;DHT22;21764;52.042;6.830;2023-04-06T09:46:24;17.30;51.40
35645;DHT22;21764;52.042;6.830;2023-04-06T09:51:26;16.70;51.50
35645;DHT22;21764;52.042;6.830;2023-04-06T09:56:53;15.50;51.60
35645;DHT22;21764;52.042;6.830;2023-04-06T10:01:51;15.80;51.90
35645;DHT22;21764;52.042;6.830;2023-04-06T10:06:54;18.70;48.90
35645;DHT22;21764;52.042;6.830;2023-04-06T10:11:58;23.80;42.80
35645;DHT22;21764;52.042;6.830;2023-04-06T10:16:59;24.90;41.20
35645;DHT22;21764;52.042;6.830;2023-04-06T10:22:03;27.20;39.70
35645;DHT22;21764;52.042;6.830;2023-04-06T10:27:06;26.90;38.90
35645;DHT22;21764;52.042;6.830;2023-04-06T10:32:07;23.00;41.20
35645;DHT22;21764;52.042;6.830;2023-04-06T10:37:14;21.40;41.30
35645;DHT22;21764;52.042;6.830;2023-04-06T10:42:15;18.60;45.40
35645;DHT22;21764;52.042;6.830;2023-04-06T10:47:17;19.70;45.40
35645;DHT22;21764;52.042;6.830;2023-04-06T10:52:18;21.60;43.70
35645;DHT22;21764;52.042;6.830;2023-04-06T10:57:28;20.70;44.10
35645;DHT22;21764;52.042;6.830;2023-04-06T11:02:29;19.70;45.80
35645;DHT22;21764;52.042;6.830;2023-04-06T11:07:30;18.10;48.00
35645;DHT22;21764;52.042;6.830;2023-04-06T11:12:31;16.40;49.70
35645;DHT22;21764;52.042;6.830;2023-04-06T11:17:33;17.00;51.50
35645;DHT22;21764;52.042;6.830;2023-04-06T11:22:35;16.40;50.60
35645;DHT22;21764;52.042;6.830;2023-04-06T11:27:35;16.50;52.20
35645;DHT22;21764;52.042;6.830;2023-04-06T11:32:40;15.70;52.60
35645;DHT22;21764;52.042;6.830;2023-04-06T11:37:43;15.30;53.50
35645;DHT22;21764;52.042;6.830;2023-04-06T11:42:52;15.20;53.10
35645;DHT22;21764;52.042;6.830;2023-04-06T11:47:57;15.10;53.20
35645;DHT22;21764;52.042;6.830;2023-04-06T11:53:01;15.00;55.20
35645;DHT22;21764;52.042;6.830;2023-04-06T11:58:01;15.80;54.30
35645;DHT22;21764;52.042;6.830;2023-04-06T12:03:03;16.40;54.10
35645;DHT22;21764;52.042;6.830;2023-04-06T12:08:03;16.70;54.40
35645;DHT22;21764;52.042;6.830;2023-04-06T12:13:04;16.90;54.60
35645;DHT22;21764;52.042;6.830;2023-04-06T12:18:05;16.70;53.90
35645;DHT22;21764;52.042;6.830;2023-04-06T12:23:06;15.80;55.30
35645;DHT22;21764;52.042;6.830;2023-04-06T12:28:07;16.20;54.80
35645;DHT22;21764;52.042;6.830;2023-04-06T12:33:08;16.30;54.00
35645;DHT22;21764;52.042;6.830;2023-04-06T12:38:08;16.30;55.10
35645;DHT22;21764;52.042;6.830;2023-04-06T12:43:09;16.10;55.30
35645;DHT22;21764;52.042;6.830;2023-04-06T12:48:10;15.60;55.60
35645;DHT22;21764;52.042;6.830;2023-04-06T12:53:11;15.70;57.60
35645;DHT22;21764;52.042;6.830;2023-04-06T12:58:11;15.70;58.90
35645;DHT22;21764;52.042;6.830;2023-04-06T13:03:12;15.80;58.80
35645;DHT22;21764;52.042;6.830;2023-04-06T13:08:14;15.80;57.80
35645;DHT22;21764;52.042;6.830;2023-04-06T13:13:15;15.10;58.30
35645;DHT22;21764;52.042;6.830;2023-04-06T13:18:16;15.20;60.10
35645;DHT22;21764;52.042;6.830;2023-04-06T13:23:17;15.40;59.80
35645;DHT22;21764;52.042;6.830;2023-04-06T13:28:17;15.30;59.10
35645;DHT22;21764;52.042;6.830;2023-04-06T13:33:18;14.70;60.10
35645;DHT22;21764;52.042;6.830;2023-04-06T13:38:19;14.90;59.90
35645;DHT22;21764;52.042;6.830;2023-04-06T13:43:20;14.50;60.60
35645;DHT22;21764;52.042;6.830;2023-04-06T13:48:21;14.10;62.10
35645;DHT22;21764;52.042;6.830;2023-04-06T13:53:21;14.30;61.30
35645;DHT22;21764;52.042;6.830;2023-04-06T13:58:22;14.30;61.50
35645;DHT22;21764;52.042;6.830;2023-04-06T14:03:23;13.90;62.20
35645;DHT22;21764;52.042;6.830;2023-04-06T14:08:24;14.10;64.60
35645;DHT22;21764;52.042;6.830;2023-04-06T14:13:25;13.80;66.30
35645;DHT22;21764;52.042;6.830;2023-04-06T14:18:25;13.60;66.90
35645;DHT22;21764;52.042;6.830;2023-04-06T14:23:28;13.20;70.10
35645;DHT22;21764;52.042;6.830;2023-04-06T14:28:30;13.00;74.80
35645;DHT22;21764;52.042;6.830;2023-04-06T14:33:31;12.80;79.90
35645;DHT22;21764;52.042;6.830;2023-04-06T14:38:32;12.30;86.60
35645;DHT22;21764;52.042;6.830;2023-04-06T14:43:33;12.20;91.40
35645;DHT22;21764;52.042;6.830;2023-04-06T14:48:35;12.10;92.90
35645;DHT22;21764;52.042;6.830;2023-04-06T14:53:35;11.90;93.40
35645;DHT22;21764;52.042;6.830;2023-04-06T14:58:36;11.70;93.20
35645;DHT22;21764;52.042;6.830;2023-04-06T15:03:37;11.50;94.10
35645;DHT22;21764;52.042;6.830;2023-04-06T15:08:37;11.60;94.70
35645;DHT22;21764;52.042;6.830;2023-04-06T15:13:39;11.50;95.10
35645;DHT22;21764;52.042;6.830;2023-04-06T15:18:41;11.30;95.90
35645;DHT22;21764;52.042;6.830;2023-04-06T15:23:41;11.40;96.00
35645;DHT22;21764;52.042;6.830;2023-04-06T15:28:42;11.30;96.10
35645;DHT22;21764;52.042;6.830;2023-04-06T15:33:44;11.20;97.10
35645;DHT22;21764;52.042;6.830;2023-04-06T15:38:44;11.30;97.70
35645;DHT22;21764;52.042;6.830;2023-04-06T15:43:45;11.10;97.60
35645;DHT22;21764;52.042;6.830;2023-04-06T15:48:46;11.10;98.20
35645;DHT22;21764;52.042;6.830;2023-04-06T15:53:47;11.00;98.70
35645;DHT22;21764;52.042;6.830;2023-04-06T15:58:47;10.80;99.50
35645;DHT22;21764;52.042;6.830;2023-04-06T16:03:48;10.30;99.90
35645;DHT22;21764;52.042;6.830;2023-04-06T16:08:49;10.30;99.90
35645;DHT22;21764;52.042;6.830;2023-04-06T16:13:50;10.30;99.90
35645;DHT22;21764;52.042;6.830;2023-04-06T16:18:51;10.20;99.90
35645;DHT22;21764;52.042;6.830;2023-04-06T16:23:51;10.10;99.90
35645;DHT22;21764;52.042;6.830;2023-04-06T16:28:52;9.90;99.90
35645;DHT22;21764;52.042;6.830;2023-04-06T16:33:55;9.70;99.90
35645;DHT22;21764;52.042;6.830;2023-04-06T16:38:57;9.60;99.90
35645;DHT22;21764;52.042;6.830;2023-04-06T16:43:58;9.50;99.90
35645;DHT22;21764;52.042;6.830;2023-04-06T16:48:59;9.30;99.90
35645;DHT22;21764;52.042;6.830;2023-04-06T16:54:00;9.30;99.90
35645;DHT22;21764;52.042;6.830;2023-04-06T16:59:01;9.40;99.90
35645;DHT22;21764;52.042;6.830;2023-04-06T17:04:02;9.30;99.90
35645;DHT22;21764;52.042;6.830;2023-04-06T17:09:03;9.20;99.90
35645;DHT22;21764;52.042;6.830;2023-04-06T17:14:04;9.10;99.90
35645;DHT22;21764;52.042;6.830;2023-04-06T17:19:06;8.90;99.90
35645;DHT22;21764;52.042;6.830;2023-04-06T17:24:07;8.90;99.90
35645;DHT22;21764;52.042;6.830;2023-04-06T17:29:09;8.60;99.90
35645;DHT22;21764;52.042;6.830;2023-04-06T17:34:10;8.40;99.90
35645;DHT22;21764;52.042;6.830;2023-04-06T17:39:11;8.20;99.90
35645;DHT22;21764;52.042;6.830;2023-04-06T17:44:11;7.90;99.90
35645;DHT22;21764;52.042;6.830;2023-04-06T17:49:12;7.80;99.90
35645;DHT22;21764;52.042;6.830;2023-04-06T17:54:13;7.50;99.90
35645;DHT22;21764;52.042;6.830;2023-04-06T17:59:14;7.40;99.90
35645;DHT22;21764;52.042;6.830;2023-04-06T18:04:15;7.40;99.90
35645;DHT22;21764;52.042;6.830;2023-04-06T18:09:16;7.50;99.90
35645;DHT22;21764;52.042;6.830;2023-04-06T18:14:16;7.30;99.90
35645;DHT22;21764;52.042;6.830;2023-04-06T18:19:17;7.20;99.90
35645;DHT22;21764;52.042;6.830;2023-04-06T18:24:18;7.10;99.90
35645;DHT22;21764;52.042;6.830;2023-04-06T18:29:18;7.10;99.90
35645;DHT22;21764;52.042;6.830;2023-04-06T18:34:20;7.20;99.90
35645;DHT22;21764;52.042;6.830;2023-04-06T18:39:21;7.10;99.90
35645;DHT22;21764;52.042;6.830;2023-04-06T18:44:22;7.20;99.90
35645;DHT22;21764;52.042;6.830;2023-04-06T18:49:22;7.20;99.90
35645;DHT22;21764;52.042;6.830;2023-04-06T18:54:23;7.10;99.90
35645;DHT22;21764;52.042;6.830;2023-04-06T18:59:24;6.90;99.90
35645;DHT22;21764;52.042;6.830;2023-04-06T19:04:29;7.00;99.90
35645;DHT22;21764;52.042;6.830;2023-04-06T19:09:30;7.10;99.90
35645;DHT22;21764;52.042;6.830;2023-04-06T19:14:30;7.30;99.90
35645;DHT22;21764;52.042;6.830;2023-04-06T19:19:32;7.10;99.90
35645;DHT22;21764;52.042;6.830;2023-04-06T19:24:34;7.40;99.90
35645;DHT22;21764;52.042;6.830;2023-04-06T19:29:35;7.00;99.90
35645;DHT22;21764;52.042;6.830;2023-04-06T19:34:38;7.10;99.90
35645;DHT22;21764;52.042;6.830;2023-04-06T19:39:38;7.00;99.90
35645;DHT22;21764;52.042;6.830;2023-04-06T19:44:43;7.00;99.90
35645;DHT22;21764;52.042;6.830;2023-04-06T19:49:44;7.00;99.90
35645;DHT22;21764;52.042;6.830;2023-04-06T20:24:53;8.10;99.90
35645;DHT22;21764;52.042;6.830;2023-04-06T20:29:54;7.80;99.90
35645;DHT22;21764;52.042;6.830;2023-04-06T20:34:55;7.80;99.90
35645;DHT22;21764;52.042;6.830;2023-04-06T20:39:56;7.60;99.90
35645;DHT22;21764;52.042;6.830;2023-04-06T20:44:56;7.80;99.90
35645;DHT22;21764;52.042;6.830;2023-04-06T20:49:57;8.10;99.90
35645;DHT22;21764;52.042;6.830;2023-04-06T20:54:58;8.30;99.90
35645;DHT22;21764;52.042;6.830;2023-04-06T20:59:59;7.80;99.90
35645;DHT22;21764;52.042;6.830;2023-04-06T21:05:00;7.80;99.90
35645;DHT22;21764;52.042;6.830;2023-04-06T21:10:01;7.90;99.90
35645;DHT22;21764;52.042;6.830;2023-04-06T21:15:03;8.10;99.90
35645;DHT22;21764;52.042;6.830;2023-04-06T21:25:06;8.30;99.90
